createdAt,value
2022-09-05T00:02:24.395Z,16.12
2022-09-05T00:05:05.889Z,16.22
2022-09-05T00:07:59.325Z,15.92
2022-09-05T00:10:46.616Z,16.04
2022-09-05T00:13:33.283Z,15.97
2022-09-05T00:16:19.565Z,15.93
2022-09-05T00:24:20.851Z,16.02
2022-09-05T00:24:34.560Z,15.84
2022-09-05T00:27:58.660Z,15.95
2022-09-05T00:31:51.612Z,15.87
2022-09-05T00:33:37.750Z,15.88
2022-09-05T00:36:25.972Z,15.91
2022-09-05T00:39:01.303Z,15.83
2022-09-05T00:41:34.268Z,15.79
2022-09-05T00:44:05.619Z,15.75
2022-09-05T00:46:38.590Z,15.72
2022-09-05T00:49:18.916Z,15.82
2022-09-05T00:51:56.069Z,15.77
2022-09-05T00:54:46.171Z,15.74
2022-09-05T00:57:43.600Z,15.65
2022-09-05T01:00:17.904Z,15.74
2022-09-05T01:03:09.944Z,15.57
2022-09-05T01:06:13.860Z,15.64
2022-09-05T01:09:07.576Z,15.62
2022-09-05T01:12:02.348Z,15.55
2022-09-05T01:14:48.527Z,15.52
2022-09-05T01:17:31.458Z,15.58
2022-09-05T01:20:19.534Z,15.44
2022-09-05T01:23:08.518Z,15.30
2022-09-05T01:25:55.536Z,15.52
2022-09-05T01:29:15.048Z,15.82
2022-09-05T01:31:29.288Z,15.76
2022-09-05T01:34:14.245Z,15.74
2022-09-05T01:36:58.331Z,15.62
2022-09-05T01:40:15.301Z,15.70
2022-09-05T01:42:38.303Z,15.82
2022-09-05T01:45:17.417Z,15.69
2022-09-05T01:47:54.728Z,15.61
2022-09-05T01:50:40.655Z,15.44
2022-09-05T01:53:28.051Z,15.41
2022-09-05T01:56:14.971Z,15.43
2022-09-05T01:58:51.063Z,15.69
2022-09-05T02:01:32.929Z,15.84
2022-09-05T02:04:24.267Z,15.89
2022-09-05T02:07:19.279Z,15.68
2022-09-05T02:10:23.348Z,15.65
2022-09-05T02:13:02.919Z,15.49
2022-09-05T02:15:57.752Z,15.53
2022-09-05T02:18:48.085Z,15.57
2022-09-05T02:21:27.349Z,15.45
2022-09-05T02:24:06.431Z,15.45
2022-09-05T02:26:41.163Z,15.53
2022-09-05T02:29:29.020Z,15.44
2022-09-05T02:32:04.748Z,15.47
2022-09-05T02:34:46.159Z,15.27
2022-09-05T02:38:15.591Z,15.46
2022-09-05T02:45:04.076Z,15.41
2022-09-05T02:45:09.523Z,15.22
2022-09-05T02:46:19.369Z,15.26
2022-09-05T02:48:55.848Z,15.05
2022-09-05T02:57:41.149Z,15.15
2022-09-05T02:57:46.440Z,15.03
2022-09-05T02:58:05.242Z,15.08
2022-09-05T03:00:23.127Z,15.10
2022-09-05T03:03:22.024Z,15.04
2022-09-05T03:05:58.114Z,15.01
2022-09-05T03:08:55.436Z,15.07
2022-09-05T03:11:58.630Z,14.91
2022-09-05T03:15:20.797Z,14.93
2022-09-05T03:18:28.090Z,15.11
2022-09-05T03:21:39.703Z,15.01
2022-09-05T03:24:56.243Z,14.95
2022-09-05T03:28:06.810Z,15.08
2022-09-05T03:30:52.227Z,15.01
2022-09-05T03:33:43.401Z,15.20
2022-09-05T03:36:54.414Z,15.18
2022-09-05T03:39:56.775Z,15.19
2022-09-05T03:43:14.437Z,15.07
2022-09-05T03:46:01.508Z,15.15
2022-09-05T03:49:10.510Z,15.35
2022-09-05T03:57:15.960Z,15.50
2022-09-05T03:57:27.458Z,15.50
2022-09-05T03:58:56.232Z,15.29
2022-09-05T04:02:46.455Z,15.52
2022-09-05T04:08:20.388Z,15.67
2022-09-05T04:08:23.726Z,15.23
2022-09-05T04:10:27.769Z,13.87
2022-09-05T04:13:02.758Z,15.33
2022-09-05T04:15:42.075Z,15.62
2022-09-05T04:18:33.443Z,15.76
2022-09-05T04:21:08.362Z,15.45
2022-09-05T04:23:49.420Z,15.44
2022-09-05T04:26:36.239Z,15.22
2022-09-05T04:29:16.686Z,15.43
2022-09-05T04:32:03.920Z,14.90
2022-09-05T04:34:56.006Z,15.36
2022-09-05T04:37:49.473Z,15.61
2022-09-05T04:40:39.474Z,15.74
2022-09-05T04:43:14.403Z,15.95
2022-09-05T04:45:46.871Z,15.88
2022-09-05T04:48:22.251Z,15.80
2022-09-05T04:51:11.691Z,15.84
2022-09-05T04:54:05.094Z,15.48
2022-09-05T04:56:38.511Z,15.72
2022-09-05T05:01:39.364Z,15.76
2022-09-05T05:06:05.153Z,15.87
2022-09-05T05:06:16.466Z,15.91
2022-09-05T05:07:59.367Z,15.79
2022-09-05T05:14:02.616Z,15.67
2022-09-05T05:17:57.032Z,15.41
2022-09-05T05:18:09.596Z,15.54
2022-09-05T05:19:21.688Z,15.57
2022-09-05T05:21:55.227Z,15.41
2022-09-05T05:24:29.115Z,15.55
2022-09-05T05:27:07.522Z,15.24
2022-09-05T05:29:45.561Z,15.30
2022-09-05T05:32:24.908Z,15.05
2022-09-05T05:35:15.689Z,15.33
2022-09-05T05:37:49.630Z,15.63
2022-09-05T05:40:25.639Z,15.61
2022-09-05T05:42:55.168Z,15.27
2022-09-05T05:45:29.147Z,15.09
2022-09-05T05:48:05.099Z,15.50
2022-09-05T05:50:49.152Z,15.40
2022-09-05T05:53:43.043Z,15.34
2022-09-05T05:56:36.206Z,15.30
2022-09-05T05:59:30.742Z,15.53
2022-09-05T06:02:30.681Z,15.57
2022-09-05T06:05:35.371Z,15.74
2022-09-05T06:09:52.699Z,15.95
2022-09-05T06:14:56.248Z,15.50
2022-09-05T06:15:12.124Z,16.00
2022-09-05T06:18:29.328Z,16.35
2022-09-05T06:22:10.090Z,16.53
2022-09-05T06:25:16.243Z,17.85
2022-09-05T06:28:18.395Z,17.57
2022-09-05T06:31:29.839Z,17.17
2022-09-05T06:34:05.171Z,16.17
2022-09-05T06:36:49.881Z,15.62
2022-09-05T06:39:32.223Z,15.59
2022-09-05T06:42:28.540Z,15.96
2022-09-05T06:45:28.784Z,15.78
2022-09-05T06:48:06.110Z,15.28
2022-09-05T06:51:07.938Z,15.08
2022-09-05T06:53:59.329Z,14.29
2022-09-05T06:56:47.243Z,14.22
2022-09-05T07:00:02.573Z,14.07
2022-09-05T07:02:58.858Z,14.21
2022-09-05T07:05:40.082Z,14.01
2022-09-05T07:08:36.419Z,14.16
2022-09-05T07:11:16.616Z,14.21
2022-09-05T07:14:01.506Z,14.40
2022-09-05T07:16:41.045Z,14.46
2022-09-05T07:19:27.201Z,14.52
2022-09-05T07:22:33.450Z,14.74
2022-09-05T07:25:08.813Z,13.76
2022-09-05T07:28:26.369Z,13.59
2022-09-05T07:30:32.529Z,13.20
2022-09-05T07:33:04.211Z,13.31
2022-09-05T07:35:41.636Z,13.36
2022-09-05T07:38:17.065Z,13.36
2022-09-05T07:40:54.276Z,13.18
2022-09-05T07:43:28.033Z,13.09
2022-09-05T07:46:11.651Z,13.24
2022-09-05T07:48:49.581Z,13.33
2022-09-05T07:56:46.939Z,13.64
2022-09-05T07:57:02.367Z,13.91
2022-09-05T07:57:31.779Z,14.50
2022-09-05T08:00:08.376Z,14.20
2022-09-05T08:03:01.198Z,14.44
2022-09-05T08:05:40.544Z,15.57
2022-09-05T08:08:17.735Z,16.08
2022-09-05T08:11:25.058Z,16.14
2022-09-05T08:13:57.799Z,15.90
2022-09-05T08:16:43.549Z,15.91
2022-09-05T08:19:43.356Z,15.35
2022-09-05T08:22:21.392Z,15.63
2022-09-05T08:25:00.970Z,15.59
2022-09-05T08:27:37.785Z,15.78
2022-09-05T08:30:27.470Z,15.41
2022-09-05T08:33:10.240Z,14.77
2022-09-05T08:35:45.465Z,15.44
2022-09-05T08:38:17.166Z,15.74
2022-09-05T08:40:59.801Z,15.67
2022-09-05T08:46:38.064Z,16.13
2022-09-05T08:46:43.591Z,15.70
2022-09-05T08:49:52.658Z,16.01
2022-09-05T08:52:31.682Z,16.50
2022-09-05T08:55:12.804Z,16.44
2022-09-05T08:58:12.204Z,16.83
2022-09-05T09:00:55.593Z,16.59
2022-09-05T09:03:33.760Z,17.71
2022-09-05T09:06:21.697Z,17.65
2022-09-05T09:09:18.610Z,18.48
2022-09-05T09:11:55.386Z,18.61
2022-09-05T09:14:59.454Z,18.99
2022-09-05T09:17:43.995Z,19.61
2022-09-05T09:20:37.495Z,19.03
2022-09-05T09:23:32.041Z,19.90
2022-09-05T09:26:13.495Z,19.14
2022-09-05T09:28:51.773Z,20.12
2022-09-05T09:31:44.379Z,20.69
2022-09-05T09:34:36.779Z,20.99
2022-09-05T09:37:51.911Z,21.32
2022-09-05T09:40:52.237Z,22.05
2022-09-05T09:43:39.285Z,21.64
2022-09-05T09:46:18.411Z,20.75
2022-09-05T09:49:23.082Z,20.69
2022-09-05T09:52:22.150Z,20.84
2022-09-05T09:55:41.278Z,21.72
2022-09-05T09:58:36.721Z,22.38
2022-09-05T10:01:21.609Z,22.49
2022-09-05T10:10:36.428Z,21.38
2022-09-05T10:10:45.889Z,20.75
2022-09-05T10:11:51.987Z,19.24
2022-09-05T10:14:56.812Z,17.06
2022-09-05T10:17:55.222Z,14.93
2022-09-05T10:21:15.555Z,14.68
2022-09-05T10:23:58.650Z,14.88
2022-09-05T10:27:20.847Z,15.29
2022-09-05T10:30:12.181Z,23.04
2022-09-05T10:35:04.804Z,23.32
2022-09-05T10:35:50.464Z,19.98
2022-09-05T10:38:26.359Z,18.45
2022-09-05T10:41:03.278Z,18.93
2022-09-05T10:43:54.935Z,24.73
2022-09-05T10:46:50.050Z,28.24
2022-09-05T10:49:27.316Z,29.63
2022-09-05T10:52:18.695Z,28.48
2022-09-05T10:55:13.988Z,30.27
2022-09-05T10:57:57.612Z,31.48
2022-09-05T11:02:23.723Z,30.52
2022-09-05T11:03:46.866Z,29.82
2022-09-05T11:06:20.933Z,32.58
2022-09-05T11:09:06.922Z,27.45
2022-09-05T11:11:46.155Z,28.06
2022-09-05T11:14:35.298Z,25.09
2022-09-05T11:17:16.123Z,26.22
2022-09-05T11:19:49.554Z,24.11
2022-09-05T11:22:23.683Z,28.64
2022-09-05T11:24:59.132Z,30.86
2022-09-05T11:27:34.087Z,30.34
2022-09-05T11:30:07.113Z,29.55
2022-09-05T11:39:42.475Z,31.39
2022-09-05T11:39:58.054Z,31.89
2022-09-05T11:40:07.051Z,32.59
2022-09-05T11:42:48.943Z,31.31
2022-09-05T11:45:39.453Z,24.39
2022-09-05T11:48:47.906Z,23.60
2022-09-05T11:51:59.566Z,30.83
2022-09-05T11:55:08.133Z,28.81
2022-09-05T11:58:44.623Z,30.49
2022-09-05T12:01:43.469Z,28.66
2022-09-05T12:04:29.593Z,31.46
2022-09-05T12:07:32.900Z,29.96
2022-09-05T12:10:46.621Z,31.31
2022-09-05T12:13:32.556Z,32.82
2022-09-05T12:16:10.375Z,31.29
2022-09-05T12:18:48.673Z,24.40
2022-09-05T12:21:29.832Z,22.73
2022-09-05T12:27:41.240Z,29.91
2022-09-05T12:30:00.698Z,31.06
2022-09-05T12:33:47.916Z,31.49
2022-09-05T12:36:10.009Z,31.66
2022-09-05T12:40:04.908Z,25.66
2022-09-05T12:41:41.475Z,28.29
2022-09-05T12:41:44.996Z,32.91
2022-09-05T12:44:41.235Z,30.70
2022-09-05T12:47:18.518Z,30.57
2022-09-05T12:50:03.436Z,30.52
2022-09-05T12:52:46.755Z,32.33
2022-09-05T12:55:27.333Z,33.22
2022-09-05T13:03:09.384Z,27.86
2022-09-05T13:03:09.503Z,33.35
2022-09-05T13:04:15.839Z,31.26
2022-09-05T13:06:45.452Z,25.51
2022-09-05T13:09:22.898Z,23.58
2022-09-05T13:14:54.911Z,27.85
2022-09-05T13:15:21.507Z,31.65
2022-09-05T13:18:00.395Z,24.11
2022-09-05T13:20:36.920Z,22.81
2022-09-05T13:23:20.309Z,21.70
2022-09-05T13:25:58.626Z,21.83
2022-09-05T13:28:35.462Z,21.70
2022-09-05T13:37:58.606Z,21.47
2022-09-05T13:38:10.750Z,20.94
2022-09-05T13:38:17.823Z,21.82
2022-09-05T13:39:50.572Z,27.75
2022-09-05T13:42:23.068Z,27.25
2022-09-05T13:44:56.585Z,25.02
2022-09-05T13:47:56.381Z,24.42
2022-09-05T13:50:28.780Z,23.63
2022-09-05T13:53:04.957Z,24.43
2022-09-05T13:55:42.908Z,23.62
2022-09-05T13:58:17.732Z,25.48
2022-09-05T14:01:19.036Z,27.91
2022-09-05T14:07:46.767Z,25.88
2022-09-05T14:10:55.253Z,26.59
2022-09-05T14:13:28.329Z,26.47
2022-09-05T14:16:00.804Z,28.55
2022-09-05T14:18:55.591Z,27.09
2022-09-05T14:21:27.827Z,23.41
2022-09-05T14:24:03.405Z,22.85
2022-09-05T14:26:42.419Z,22.47
2022-09-05T14:29:18.692Z,21.54
2022-09-05T14:37:34.751Z,21.49
2022-09-05T14:37:44.461Z,21.50
2022-09-05T14:38:09.685Z,26.07
2022-09-05T14:41:29.170Z,25.90
2022-09-05T14:44:37.862Z,21.38
2022-09-05T14:47:42.531Z,20.87
2022-09-05T14:50:27.693Z,20.44
2022-09-05T14:56:23.175Z,19.86
2022-09-05T15:02:56.710Z,19.51
2022-09-05T15:02:57.790Z,19.34
2022-09-05T15:04:45.386Z,19.32
2022-09-05T15:07:21.931Z,19.74
2022-09-05T15:12:15.727Z,19.55
2022-09-05T15:13:03.456Z,20.31
2022-09-05T15:18:03.051Z,19.86
2022-09-05T15:20:37.347Z,19.64
2022-09-05T15:23:11.324Z,19.77
2022-09-05T15:25:49.711Z,19.16
2022-09-05T15:28:31.717Z,18.87
2022-09-05T15:31:05.089Z,18.93
2022-09-05T15:33:34.298Z,19.95
2022-09-05T15:36:06.870Z,19.70
2022-09-05T15:38:54.453Z,19.48
2022-09-05T15:41:26.634Z,19.47
2022-09-05T15:44:00.173Z,19.67
2022-09-05T15:46:49.462Z,19.39
2022-09-05T15:49:33.265Z,18.94
2022-09-05T15:52:07.531Z,18.98
2022-09-05T15:54:40.484Z,18.84
2022-09-05T15:57:17.653Z,18.84
2022-09-05T15:59:53.924Z,18.55
2022-09-05T16:02:26.387Z,18.05
2022-09-05T16:10:35.642Z,17.94
2022-09-05T16:10:42.220Z,17.83
2022-09-05T16:11:37.042Z,17.68
2022-09-05T16:13:51.997Z,17.52
2022-09-05T16:23:14.891Z,17.25
2022-09-05T16:23:16.571Z,17.17
2022-09-05T16:23:24.772Z,17.15
2022-09-05T16:25:17.579Z,17.02
2022-09-05T16:27:53.652Z,17.06
2022-09-05T16:30:25.219Z,16.92
2022-09-05T16:33:01.737Z,16.72
2022-09-05T16:35:35.182Z,16.69
2022-09-05T16:38:09.859Z,16.73
2022-09-05T16:40:43.764Z,16.62
2022-09-05T16:43:19.531Z,16.50
2022-09-05T16:45:56.435Z,16.54
2022-09-05T16:48:40.736Z,16.42
2022-09-05T16:51:35.065Z,16.06
2022-09-05T16:54:12.447Z,16.39
2022-09-05T16:56:46.606Z,16.38
2022-09-05T16:59:19.307Z,16.32
2022-09-05T17:02:06.312Z,16.28
2022-09-05T17:05:03.238Z,16.26
2022-09-05T17:07:53.696Z,16.35
2022-09-05T17:10:27.153Z,16.25
2022-09-05T17:12:57.919Z,16.13
2022-09-05T17:15:30.759Z,16.27
2022-09-05T17:18:22.436Z,16.35
2022-09-05T17:20:58.580Z,16.37
2022-09-05T17:29:21.169Z,16.46
2022-09-05T17:29:30.257Z,16.39
2022-09-05T17:31:20.883Z,16.46
2022-09-05T17:32:54.563Z,16.46
2022-09-05T17:35:43.624Z,16.44
2022-09-05T17:39:00.802Z,16.47
2022-09-05T17:42:02.280Z,16.23
2022-09-05T17:44:42.915Z,16.37
2022-09-05T17:47:35.514Z,16.18
2022-09-05T17:50:16.823Z,16.03
2022-09-05T17:53:26.420Z,16.09
2022-09-05T17:56:14.887Z,16.12
2022-09-05T17:59:03.883Z,16.09
2022-09-05T18:01:35.115Z,15.97
2022-09-05T18:04:17.082Z,15.83
2022-09-05T18:06:59.235Z,15.95
2022-09-05T18:10:14.579Z,15.93
2022-09-05T18:13:31.628Z,15.87
2022-09-05T18:16:11.733Z,15.87
2022-09-05T18:19:32.910Z,15.86
2022-09-05T18:21:50.032Z,15.90
2022-09-05T18:24:32.774Z,15.96
2022-09-05T18:27:35.114Z,15.92
2022-09-05T18:30:01.761Z,15.70
2022-09-05T18:32:45.549Z,15.87
2022-09-05T18:35:36.899Z,15.87
2022-09-05T18:38:50.459Z,15.69
2022-09-05T18:41:19.299Z,15.80
2022-09-05T18:44:13.523Z,15.84
2022-09-05T18:46:52.768Z,15.76
2022-09-05T18:50:25.608Z,15.69
2022-09-05T18:52:23.390Z,15.52
2022-09-05T18:55:46.357Z,15.08
2022-09-05T18:57:52.479Z,15.34
2022-09-05T19:00:44.572Z,15.52
2022-09-05T19:03:19.605Z,15.51
2022-09-05T19:06:34.295Z,15.45
2022-09-05T19:08:56.339Z,15.37
2022-09-05T19:11:31.871Z,15.26
2022-09-05T19:14:26.722Z,15.19
2022-09-05T19:17:09.942Z,15.09
2022-09-05T19:20:31.877Z,15.20
2022-09-05T19:23:10.595Z,15.19
2022-09-05T19:25:45.293Z,15.14
2022-09-05T19:36:46.080Z,15.04
2022-09-05T19:36:46.724Z,15.23
2022-09-05T19:36:59.028Z,15.27
2022-09-05T19:43:28.361Z,15.34
2022-09-05T19:47:39.300Z,15.10
2022-09-05T19:47:51.105Z,15.21
2022-09-05T19:48:27.478Z,15.00
2022-09-05T19:50:58.269Z,14.92
2022-09-05T19:53:27.428Z,14.84
2022-09-05T19:55:56.590Z,14.69
2022-09-05T19:58:25.771Z,14.62
2022-09-05T20:01:05.152Z,14.65
2022-09-05T20:03:39.454Z,14.56
2022-09-05T20:06:30.032Z,14.38
2022-09-05T20:09:14.929Z,14.45
2022-09-05T20:11:49.637Z,14.43
2022-09-05T20:14:22.016Z,14.25
2022-09-05T20:16:55.969Z,14.25
2022-09-05T20:19:28.744Z,14.20
2022-09-05T20:22:46.667Z,14.22
2022-09-05T20:24:55.915Z,13.93
2022-09-05T20:27:28.288Z,14.08
2022-09-05T20:30:00.461Z,14.08
2022-09-05T20:32:39.479Z,13.94
2022-09-05T20:39:01.011Z,13.96
2022-09-05T20:43:11.526Z,13.76
2022-09-05T20:43:21.750Z,13.86
2022-09-05T20:44:19.253Z,13.87
2022-09-05T20:50:45.663Z,13.77
2022-09-05T20:54:19.067Z,13.56
2022-09-05T20:54:27.128Z,13.59
2022-09-05T20:55:41.346Z,13.44
2022-09-05T20:58:14.211Z,13.47
2022-09-05T21:01:19.758Z,12.87
2022-09-05T21:03:40.963Z,13.38
2022-09-05T21:06:23.635Z,12.88
2022-09-05T21:08:56.111Z,13.24
2022-09-05T21:11:33.785Z,13.21
2022-09-05T21:14:05.523Z,13.12
2022-09-05T21:16:38.571Z,12.88
2022-09-05T21:19:07.854Z,13.09
2022-09-05T21:21:38.045Z,13.05
2022-09-05T21:24:17.360Z,12.95
2022-09-05T21:26:49.424Z,13.06
2022-09-05T21:29:32.566Z,13.04
2022-09-05T21:32:05.597Z,12.86
2022-09-05T21:34:45.794Z,12.73
2022-09-05T21:37:17.932Z,12.81
2022-09-05T21:39:59.793Z,12.73
2022-09-05T21:47:17.222Z,12.74
2022-09-05T21:47:49.091Z,12.56
2022-09-05T21:48:13.290Z,12.57
2022-09-05T21:50:46.504Z,12.59
2022-09-05T21:55:59.495Z,12.46
2022-09-05T21:59:19.660Z,12.47
2022-09-05T21:59:29.834Z,12.43
2022-09-05T22:01:58.866Z,12.26
2022-09-05T22:04:28.785Z,12.27
2022-09-05T22:07:02.318Z,11.62
2022-09-05T22:09:32.835Z,12.28
2022-09-05T22:12:06.133Z,12.11
2022-09-05T22:14:47.043Z,12.06
2022-09-05T22:17:17.392Z,12.36
2022-09-05T22:19:46.899Z,12.39
2022-09-05T22:22:17.830Z,12.32
2022-09-05T22:24:53.641Z,12.14
2022-09-05T22:27:24.151Z,12.05
2022-09-05T22:29:53.312Z,12.04
2022-09-05T22:32:34.515Z,12.01
2022-09-05T22:35:27.976Z,11.88
2022-09-05T22:38:01.250Z,11.91
2022-09-05T22:40:32.332Z,11.77
2022-09-05T22:43:02.844Z,11.80
2022-09-05T22:45:35.912Z,11.54
2022-09-05T22:48:08.386Z,11.66
2022-09-05T22:50:38.744Z,11.65
2022-09-05T22:53:09.842Z,11.49
2022-09-05T22:55:42.573Z,11.48
2022-09-05T22:58:13.777Z,11.20
2022-09-05T23:00:44.700Z,11.53
2022-09-05T23:03:13.759Z,11.40
2022-09-05T23:05:42.803Z,11.43
2022-09-05T23:08:11.813Z,11.45
2022-09-05T23:10:42.025Z,10.99
2022-09-05T23:13:12.180Z,11.37
2022-09-05T23:15:41.205Z,11.32
2022-09-05T23:18:10.021Z,11.29
2022-09-05T23:20:38.848Z,11.27
2022-09-05T23:23:08.529Z,11.30
2022-09-05T23:25:37.560Z,11.26
2022-09-05T23:28:09.280Z,11.18
2022-09-05T23:30:38.924Z,11.10
2022-09-05T23:33:09.553Z,10.42
2022-09-05T23:35:38.803Z,10.91
2022-09-05T23:38:10.567Z,10.96
2022-09-05T23:40:39.870Z,10.93
2022-09-05T23:43:10.198Z,10.87
2022-09-05T23:45:39.155Z,10.96
2022-09-05T23:48:08.180Z,10.88
2022-09-05T23:50:37.075Z,10.81
2022-09-05T23:53:05.969Z,10.78
2022-09-05T23:55:34.899Z,10.93
2022-09-05T23:58:03.790Z,10.83
